Time;durP1;ratioP1;P1;durP2;ratioP2;P2;SDS_P1;SDS_P2;PMS_P1;PMS_P2;Temp;Humidity;BMP_temperature;BMP_pressure;BME280_temperature;BME280_humidity;BME280_pressure;Samples;Min_cycle;Max_cycle;Signal;HPM_P1;HPM_P2
2023/11/17 00:01:30;;;;;;;7.30;3.88;;;6.70;99.90;;;;;;5033030;28;20022;-41
2023/11/17 00:03:56;;;;;;;9.35;3.45;;;6.80;99.90;;;;;;5032981;28;20033;-39
2023/11/17 00:06:24;;;;;;;6.70;3.60;;;6.80;99.90;;;;;;5033761;28;20071;-42
2023/11/17 00:08:51;;;;;;;8.65;3.95;;;6.80;99.90;;;;;;5031937;28;20367;-42
2023/11/17 00:11:16;;;;;;;6.75;3.13;;;6.80;99.90;;;;;;5032718;28;20390;-43
2023/11/17 00:13:42;;;;;;;9.20;4.28;;;6.80;99.90;;;;;;5032089;28;20029;-40
2023/11/17 00:16:08;;;;;;;5.88;3.70;;;6.70;99.90;;;;;;5033273;28;20033;-42
2023/11/17 00:18:35;;;;;;;6.22;4.10;;;6.80;99.90;;;;;;5033094;28;20519;-38
2023/11/17 00:21:02;;;;;;;8.18;3.70;;;6.70;99.90;;;;;;5031585;28;20075;-40
2023/11/17 00:23:28;;;;;;;6.00;4.40;;;6.70;99.90;;;;;;5033152;28;20030;-41
2023/11/17 00:25:55;;;;;;;6.47;3.78;;;6.80;99.90;;;;;;5032812;28;20025;-43
2023/11/17 00:28:21;;;;;;;6.38;3.25;;;6.80;99.90;;;;;;5032580;28;20096;-39
2023/11/17 00:30:48;;;;;;;8.05;3.78;;;6.80;99.90;;;;;;5032861;28;20076;-41
2023/11/17 00:33:14;;;;;;;12.48;3.53;;;6.80;99.90;;;;;;5032854;28;20075;-39
2023/11/17 00:35:39;;;;;;;5.03;3.88;;;6.80;99.90;;;;;;5033132;28;20061;-41
2023/11/17 00:38:05;;;;;;;13.98;4.90;;;6.80;99.90;;;;;;5033078;28;20029;-43
2023/11/17 00:40:33;;;;;;;10.43;3.60;;;6.80;99.90;;;;;;5049541;28;20048;-39
2023/11/17 00:43:03;;;;;;;6.28;3.90;;;6.80;99.90;;;;;;5049690;28;20029;-44
2023/11/17 00:45:29;;;;;;;6.18;3.75;;;6.80;99.90;;;;;;5032008;28;20485;-40
2023/11/17 00:47:55;;;;;;;7.47;4.68;;;6.80;99.90;;;;;;5032866;28;20033;-40
2023/11/17 00:50:22;;;;;;;6.10;3.47;;;6.80;99.90;;;;;;5032819;28;20390;-38
2023/11/17 00:52:48;;;;;;;6.47;3.63;;;6.90;99.90;;;;;;5032490;28;20030;-40
2023/11/17 00:55:15;;;;;;;7.63;3.40;;;6.90;99.90;;;;;;5032415;28;20026;-42
2023/11/17 00:57:42;;;;;;;8.37;3.60;;;6.90;99.90;;;;;;5033035;28;20025;-40
2023/11/17 01:00:11;;;;;;;6.13;3.72;;;6.90;99.90;;;;;;5033129;28;20369;-40
2023/11/17 01:02:37;;;;;;;13.35;3.72;;;7.00;99.90;;;;;;5033013;28;20029;-43
2023/11/17 01:05:03;;;;;;;7.38;3.30;;;7.00;99.90;;;;;;5032609;28;20076;-39
2023/11/17 01:07:29;;;;;;;4.65;3.10;;;7.00;99.90;;;;;;5032215;28;20540;-40
2023/11/17 01:09:55;;;;;;;6.78;3.58;;;7.00;99.90;;;;;;5032819;28;20488;-43
2023/11/17 01:12:21;;;;;;;6.35;3.20;;;7.00;99.90;;;;;;5050673;28;20473;-40
2023/11/17 01:14:47;;;;;;;7.78;3.90;;;7.00;99.90;;;;;;5031904;28;20033;-40
2023/11/17 01:17:12;;;;;;;3.58;2.42;;;7.00;99.90;;;;;;5032778;28;20035;-40
2023/11/17 01:19:40;;;;;;;6.32;3.60;;;7.00;99.90;;;;;;5032436;28;20025;-40
2023/11/17 01:22:06;;;;;;;3.53;2.42;;;7.00;99.90;;;;;;5032740;28;20033;-44
2023/11/17 01:24:33;;;;;;;5.43;2.92;;;7.00;99.90;;;;;;5032484;28;20099;-43
2023/11/17 01:27:04;;;;;;;4.78;2.70;;;7.00;99.90;;;;;;5032292;28;20478;-40
2023/11/17 01:29:33;;;;;;;5.47;2.97;;;7.00;99.90;;;;;;5032787;28;20079;-45
2023/11/17 01:31:58;;;;;;;7.38;4.00;;;7.00;99.90;;;;;;5032616;28;20036;-39
2023/11/17 01:34:27;;;;;;;6.32;3.63;;;7.00;99.90;;;;;;5031232;28;20029;-39
2023/11/17 01:36:53;;;;;;;4.32;3.00;;;7.00;99.90;;;;;;5030897;28;20037;-40
2023/11/17 01:39:20;;;;;;;4.97;3.03;;;7.00;99.90;;;;;;5032679;28;20151;-39
2023/11/17 01:41:47;;;;;;;8.80;3.50;;;6.90;99.90;;;;;;5031971;28;20140;-40
2023/11/17 01:44:13;;;;;;;4.47;3.05;;;6.90;99.90;;;;;;5032388;28;20053;-41
2023/11/17 01:46:39;;;;;;;4.78;3.13;;;6.90;99.90;;;;;;5031904;28;20512;-40
2023/11/17 01:49:05;;;;;;;9.15;3.97;;;6.90;99.90;;;;;;5031534;28;20036;-39
2023/11/17 01:51:32;;;;;;;8.30;3.38;;;6.90;99.90;;;;;;5031967;28;20053;-40
2023/11/17 01:53:58;;;;;;;3.05;2.70;;;6.90;99.90;;;;;;5031835;28;20022;-40
2023/11/17 01:56:25;;;;;;;5.03;2.95;;;6.90;99.90;;;;;;5031764;28;20041;-39
2023/11/17 01:58:51;;;;;;;8.83;3.23;;;6.90;99.90;;;;;;5032241;28;20026;-41
2023/11/17 02:01:16;;;;;;;6.50;3.50;;;6.90;99.90;;;;;;5032160;28;20171;-42
2023/11/17 02:03:43;;;;;;;10.90;4.05;;;6.90;99.90;;;;;;5031350;28;20033;-40
2023/11/17 02:06:37;;;;;;;5.47;3.07;;;6.90;99.90;;;;;;5029501;28;20022;-40
2023/11/17 02:09:21;;;;;;;6.85;3.30;;;6.90;99.90;;;;;;5031796;28;20040;-40
2023/11/17 02:11:58;;;;;;;7.95;2.92;;;6.90;99.90;;;;;;5032075;28;20425;-39
2023/11/17 02:14:31;;;;;;;2.85;2.45;;;6.90;99.90;;;;;;5031812;28;20053;-38
2023/11/17 02:17:00;;;;;;;4.18;3.15;;;6.90;99.90;;;;;;5030598;28;20100;-42
2023/11/17 02:19:35;;;;;;;5.63;3.25;;;6.90;99.90;;;;;;5031220;28;20021;-52
2023/11/17 02:22:06;;;;;;;7.00;3.45;;;7.00;99.90;;;;;;5029471;28;20600;-41
2023/11/17 02:24:42;;;;;;;3.67;2.88;;;7.00;99.90;;;;;;5031765;28;20013;-38
2023/11/17 02:27:19;;;;;;;3.85;3.17;;;7.00;99.90;;;;;;5034607;28;20405;-39
2023/11/17 02:29:47;;;;;;;7.18;3.67;;;7.00;99.90;;;;;;5035695;28;20059;-42
2023/11/17 02:32:16;;;;;;;3.78;2.80;;;6.90;99.90;;;;;;5035830;28;20027;-43
2023/11/17 02:34:44;;;;;;;5.25;3.35;;;6.90;99.90;;;;;;5035348;28;20449;-39
2023/11/17 02:37:11;;;;;;;4.13;2.60;;;6.90;99.90;;;;;;5035274;28;20273;-40
2023/11/17 02:39:38;;;;;;;7.60;3.20;;;6.90;99.90;;;;;;5035359;28;20486;-40
2023/11/17 02:42:11;;;;;;;9.73;3.47;;;6.90;99.90;;;;;;5035209;28;20048;-39
2023/11/17 02:44:39;;;;;;;5.55;3.20;;;6.90;99.90;;;;;;5035068;28;20512;-39
2023/11/17 02:47:08;;;;;;;6.50;3.22;;;6.90;99.90;;;;;;5034771;28;20067;-44
2023/11/17 02:49:40;;;;;;;7.60;3.25;;;6.90;99.90;;;;;;5035374;28;20399;-39
2023/11/17 02:52:09;;;;;;;10.20;3.42;;;6.90;99.90;;;;;;5035367;28;20068;-40
2023/11/17 02:54:35;;;;;;;5.63;3.25;;;6.90;99.90;;;;;;5034394;28;20113;-39
2023/11/17 02:57:02;;;;;;;5.13;3.92;;;6.90;99.90;;;;;;5035048;28;20034;-41
2023/11/17 02:59:34;;;;;;;4.93;3.28;;;6.80;99.90;;;;;;5034721;28;20473;-43
2023/11/17 03:02:02;;;;;;;4.93;3.58;;;6.80;99.90;;;;;;5033300;28;20083;-41
2023/11/17 03:04:27;;;;;;;4.37;3.00;;;6.80;99.90;;;;;;5035105;28;20018;-41
2023/11/17 03:06:53;;;;;;;8.88;3.72;;;6.80;99.90;;;;;;5034629;28;20432;-41
2023/11/17 03:09:23;;;;;;;4.70;3.15;;;6.70;99.90;;;;;;5034798;28;20022;-41
2023/11/17 03:11:59;;;;;;;6.57;3.50;;;6.70;99.90;;;;;;5034694;28;20550;-42
2023/11/17 03:14:26;;;;;;;9.48;4.00;;;6.70;99.90;;;;;;5034444;28;20543;-40
2023/11/17 03:16:56;;;;;;;4.75;3.08;;;6.70;99.90;;;;;;5031920;28;20060;-52
2023/11/17 03:19:23;;;;;;;7.82;3.72;;;6.70;99.90;;;;;;5033288;28;20029;-41
2023/11/17 03:21:50;;;;;;;5.50;3.80;;;6.70;99.90;;;;;;5034204;28;20018;-43
2023/11/17 03:24:20;;;;;;;8.80;3.97;;;6.70;99.90;;;;;;5034035;28;20438;-45
2023/11/17 03:26:47;;;;;;;9.68;5.40;;;6.70;99.90;;;;;;5034774;28;20394;-39
2023/11/17 03:29:14;;;;;;;6.93;4.10;;;6.70;99.90;;;;;;5034711;28;20470;-41
2023/11/17 03:31:52;;;;;;;5.75;3.78;;;6.70;99.90;;;;;;5034491;28;20029;-40
2023/11/17 03:34:31;;;;;;;7.85;4.25;;;6.70;99.90;;;;;;5033005;28;20026;-40
2023/11/17 03:37:01;;;;;;;13.50;4.25;;;6.70;99.90;;;;;;5033522;28;20029;-43
2023/11/17 03:39:41;;;;;;;8.85;3.85;;;6.80;99.90;;;;;;5034225;28;20013;-40
2023/11/17 03:42:09;;;;;;;6.22;4.43;;;6.80;99.90;;;;;;5034119;28;20490;-39
2023/11/17 03:44:36;;;;;;;14.60;4.50;;;6.80;99.90;;;;;;5033639;28;20024;-39
2023/11/17 03:47:06;;;;;;;6.63;3.50;;;6.70;99.90;;;;;;5034123;28;20029;-40
2023/11/17 03:49:32;;;;;;;6.65;3.60;;;6.70;99.90;;;;;;5034031;28;20467;-41
2023/11/17 03:51:58;;;;;;;8.27;4.15;;;6.70;99.90;;;;;;5033734;28;20068;-40
2023/11/17 03:54:24;;;;;;;7.63;4.10;;;6.70;99.90;;;;;;5033653;28;20460;-39
2023/11/17 03:56:54;;;;;;;6.50;3.70;;;6.70;99.90;;;;;;5034122;28;20502;-40
2023/11/17 03:59:24;;;;;;;8.90;4.60;;;6.70;99.90;;;;;;5033837;28;20057;-40
2023/11/17 04:01:50;;;;;;;9.02;4.70;;;6.70;99.90;;;;;;5036416;28;20121;-39
2023/11/17 04:04:17;;;;;;;11.60;4.25;;;6.70;99.90;;;;;;5033067;28;20029;-40
2023/11/17 04:06:49;;;;;;;6.75;3.80;;;6.70;99.90;;;;;;5033836;28;20116;-40
2023/11/17 04:09:16;;;;;;;7.05;3.97;;;6.70;99.90;;;;;;5033805;28;20026;-40
2023/11/17 04:11:43;;;;;;;6.72;4.60;;;6.70;99.90;;;;;;5032346;28;20561;-41
2023/11/17 04:14:09;;;;;;;7.10;4.15;;;6.70;99.90;;;;;;5033392;28;20466;-41
2023/11/17 04:16:35;;;;;;;10.07;4.40;;;6.70;99.90;;;;;;5033799;28;20101;-51
2023/11/17 04:19:04;;;;;;;7.43;3.60;;;6.70;99.90;;;;;;5034496;28;20096;-42
2023/11/17 04:21:30;;;;;;;10.10;5.50;;;6.70;99.90;;;;;;5034359;28;20482;-40
2023/11/17 04:23:56;;;;;;;11.02;4.93;;;6.80;99.90;;;;;;5033194;28;20037;-42
2023/11/17 04:26:22;;;;;;;9.32;4.75;;;6.80;99.90;;;;;;5033490;28;20044;-44
2023/11/17 04:28:47;;;;;;;10.13;4.75;;;6.80;99.90;;;;;;5033124;28;20033;-40
2023/11/17 04:31:13;;;;;;;14.63;4.22;;;6.80;99.90;;;;;;5033191;28;20529;-39
2023/11/17 04:33:42;;;;;;;12.27;5.70;;;6.80;99.90;;;;;;5032537;28;20025;-39
2023/11/17 04:36:10;;;;;;;11.05;4.53;;;6.80;99.90;;;;;;5033372;28;20025;-41
2023/11/17 04:38:37;;;;;;;;;;;6.80;99.90;;;;;;5033344;28;20032;-43
2023/11/17 04:41:02;;;;;;;13.38;4.38;;;6.80;99.90;;;;;;5032877;28;19999;-40
2023/11/17 04:43:28;;;;;;;8.50;4.70;;;6.80;99.90;;;;;;5032621;28;20166;-41
2023/11/17 04:45:54;;;;;;;8.00;3.83;;;6.70;99.90;;;;;;5032589;28;20022;-42
2023/11/17 04:48:20;;;;;;;7.82;4.28;;;6.70;99.90;;;;;;5032149;28;20026;-43
2023/11/17 04:50:46;;;;;;;8.35;4.50;;;6.80;99.90;;;;;;5033203;28;20029;-39
2023/11/17 04:53:12;;;;;;;9.52;4.55;;;6.70;99.90;;;;;;5032686;28;20466;-43
2023/11/17 04:55:38;;;;;;;10.70;5.30;;;6.70;99.90;;;;;;5033184;28;20032;-39
2023/11/17 04:58:04;;;;;;;13.27;4.80;;;6.70;99.90;;;;;;5033139;28;20022;-40
2023/11/17 05:00:33;;;;;;;7.30;4.10;;;6.70;99.90;;;;;;5031773;28;20052;-40
2023/11/17 05:03:02;;;;;;;10.70;4.03;;;6.80;99.90;;;;;;5032645;28;20481;-40
2023/11/17 05:05:28;;;;;;;7.72;4.60;;;6.80;99.90;;;;;;5032902;28;20024;-41
2023/11/17 05:07:56;;;;;;;8.77;3.85;;;6.80;99.90;;;;;;5031345;28;20025;-39
2023/11/17 05:10:22;;;;;;;7.82;3.95;;;6.80;99.90;;;;;;5032203;28;20389;-55
2023/11/17 05:12:48;;;;;;;10.07;4.88;;;6.90;99.90;;;;;;5032470;28;20034;-43
2023/11/17 05:15:15;;;;;;;8.70;4.25;;;6.90;99.90;;;;;;5031794;28;20029;-47
2023/11/17 05:17:44;;;;;;;8.55;4.28;;;6.90;99.90;;;;;;5032723;28;20475;-42
2023/11/17 05:20:12;;;;;;;7.57;4.18;;;6.90;99.90;;;;;;5032267;28;20029;-39
2023/11/17 05:22:39;;;;;;;7.65;4.65;;;6.90;99.90;;;;;;5032408;28;20060;-41
2023/11/17 05:25:06;;;;;;;7.97;4.63;;;6.90;99.90;;;;;;5032431;28;20474;-39
2023/11/17 05:27:36;;;;;;;6.00;4.10;;;6.90;99.90;;;;;;5032589;28;20394;-42
2023/11/17 05:30:04;;;;;;;9.52;4.18;;;6.90;99.90;;;;;;5032476;28;20029;-40
2023/11/17 05:32:31;;;;;;;10.13;4.30;;;6.90;99.90;;;;;;5031291;28;20048;-41
2023/11/17 05:34:57;;;;;;;10.95;4.65;;;6.90;99.90;;;;;;5032322;28;20040;-41
2023/11/17 05:37:23;;;;;;;8.70;4.50;;;6.90;99.90;;;;;;5032651;28;20033;-44
2023/11/17 05:39:50;;;;;;;7.60;4.03;;;6.90;99.90;;;;;;5032049;28;20037;-40
2023/11/17 05:42:16;;;;;;;12.82;4.30;;;6.90;99.90;;;;;;5032155;28;20448;-38
2023/11/17 05:44:42;;;;;;;9.73;5.07;;;6.80;99.90;;;;;;5032190;28;20025;-39
2023/11/17 05:47:08;;;;;;;11.63;4.65;;;6.90;99.90;;;;;;5012776;28;20032;-39
2023/11/17 05:49:41;;;;;;;7.15;4.03;;;6.90;99.90;;;;;;5027207;28;20029;-40
2023/11/17 05:52:08;;;;;;;8.85;4.40;;;6.90;99.90;;;;;;5032453;28;20029;-40
2023/11/17 05:54:39;;;;;;;9.35;4.75;;;6.90;99.90;;;;;;5031946;28;20398;-40
2023/11/17 05:57:05;;;;;;;12.57;5.22;;;6.90;99.90;;;;;;5032757;28;20497;-40
2023/11/17 05:59:30;;;;;;;11.38;5.38;;;6.90;99.90;;;;;;5031826;28;20106;-40
2023/11/17 06:01:59;;;;;;;8.57;4.72;;;6.90;99.90;;;;;;5035218;28;20466;-40
2023/11/17 06:04:28;;;;;;;10.82;4.78;;;6.90;99.90;;;;;;5036002;28;20025;-41
2023/11/17 06:06:53;;;;;;;8.48;4.88;;;6.90;99.90;;;;;;5036373;28;20497;-41
2023/11/17 06:09:19;;;;;;;9.63;4.13;;;6.90;99.90;;;;;;5035861;28;20021;-41
2023/11/17 06:11:45;;;;;;;7.97;4.93;;;6.90;99.90;;;;;;5035809;28;20110;-40
2023/11/17 06:14:11;;;;;;;11.70;4.45;;;6.90;99.90;;;;;;5035891;28;20084;-39
2023/11/17 06:16:37;;;;;;;12.50;5.38;;;6.90;99.90;;;;;;5036085;28;20546;-39
2023/11/17 06:19:03;;;;;;;10.98;4.90;;;6.90;99.90;;;;;;5034025;28;20009;-40
2023/11/17 06:21:29;;;;;;;13.18;6.15;;;6.90;99.90;;;;;;5035800;28;20470;-40
2023/11/17 06:23:55;;;;;;;9.45;4.95;;;6.80;99.90;;;;;;5035524;28;20506;-39
2023/11/17 06:26:22;;;;;;;11.73;5.60;;;6.80;99.90;;;;;;5035958;28;20117;-38
2023/11/17 06:28:48;;;;;;;13.70;6.97;;;6.80;99.90;;;;;;5035199;28;20083;-41
2023/11/17 06:31:14;;;;;;;9.55;5.03;;;6.80;99.90;;;;;;5035853;28;20013;-41
2023/11/17 06:33:40;;;;;;;11.18;5.18;;;6.80;99.90;;;;;;5035470;28;20429;-41
2023/11/17 06:36:06;;;;;;;12.13;4.97;;;6.80;99.90;;;;;;5035573;28;20026;-39
2023/11/17 06:38:35;;;;;;;10.07;4.80;;;6.80;99.90;;;;;;5035686;28;20478;-39
2023/11/17 06:41:01;;;;;;;8.43;5.47;;;6.80;99.90;;;;;;5034706;28;20493;-40
2023/11/17 06:43:29;;;;;;;9.52;5.20;;;6.80;99.90;;;;;;5035390;28;20026;-40
2023/11/17 06:45:55;;;;;;;;;;;6.70;99.90;;;;;;5035427;28;20462;-40
2023/11/17 06:48:21;;;;;;;16.40;5.60;;;6.70;99.90;;;;;;5035046;28;19959;-41
2023/11/17 06:50:50;;;;;;;9.73;5.10;;;6.70;99.90;;;;;;5034290;28;20057;-40
2023/11/17 06:53:15;;;;;;;13.27;6.00;;;6.70;99.90;;;;;;5034676;28;20033;-39
2023/11/17 06:55:41;;;;;;;19.55;6.18;;;6.70;99.90;;;;;;5035354;28;20041;-53
2023/11/17 06:58:07;;;;;;;10.93;4.82;;;6.70;99.90;;;;;;5034802;28;20414;-40
2023/11/17 07:00:33;;;;;;;11.80;4.95;;;6.60;99.90;;;;;;5034604;28;20021;-43
2023/11/17 07:03:02;;;;;;;8.50;5.00;;;6.60;99.90;;;;;;5035220;28;20084;-40
2023/11/17 07:05:29;;;;;;;13.95;5.38;;;6.60;99.90;;;;;;5034691;28;20029;-42
2023/11/17 07:07:57;;;;;;;10.23;4.80;;;6.60;99.90;;;;;;5034648;28;20038;-39
2023/11/17 07:10:25;;;;;;;9.65;5.55;;;6.60;99.90;;;;;;5034780;28;20115;-42
2023/11/17 07:12:52;;;;;;;12.60;5.22;;;6.60;99.90;;;;;;5032528;28;20038;-38
2023/11/17 07:15:18;;;;;;;9.43;5.10;;;6.60;99.90;;;;;;5034570;28;20486;-39
2023/11/17 07:17:45;;;;;;;12.13;5.80;;;6.60;99.90;;;;;;5035075;28;20548;-38
2023/11/17 07:20:11;;;;;;;8.90;5.45;;;6.60;99.90;;;;;;5034948;28;20025;-39
2023/11/17 07:22:43;;;;;;;9.38;5.47;;;6.60;99.90;;;;;;5033210;28;20482;-39
2023/11/17 07:25:13;;;;;;;14.05;6.40;;;6.70;99.90;;;;;;5034679;28;20026;-44
2023/11/17 07:27:40;;;;;;;12.48;6.28;;;6.70;99.90;;;;;;5034913;28;20034;-40
2023/11/17 07:30:13;;;;;;;12.95;6.63;;;6.70;99.90;;;;;;5066077;28;20525;-40
2023/11/17 07:32:41;;;;;;;14.80;5.55;;;6.70;99.90;;;;;;5033270;28;20033;-39
2023/11/17 07:35:07;;;;;;;15.93;5.33;;;6.80;99.90;;;;;;5033979;28;20112;-45
2023/11/17 07:37:34;;;;;;;14.95;5.20;;;6.80;99.90;;;;;;5034455;28;20283;-46
2023/11/17 07:40:00;;;;;;;13.85;5.88;;;6.80;99.90;;;;;;5034437;28;20044;-43
2023/11/17 07:42:26;;;;;;;15.10;6.47;;;6.80;99.90;;;;;;5033702;28;20095;-42
2023/11/17 07:44:52;;;;;;;15.73;7.05;;;6.90;99.90;;;;;;5034369;28;20025;-39
2023/11/17 07:47:20;;;;;;;17.52;7.15;;;6.90;99.90;;;;;;5034150;28;20033;-39
2023/11/17 07:49:45;;;;;;;14.95;6.30;;;6.90;99.90;;;;;;5034397;28;20025;-39
2023/11/17 07:52:11;;;;;;;12.20;6.22;;;6.90;99.90;;;;;;5031938;28;20029;-40
2023/11/17 07:54:37;;;;;;;10.45;5.72;;;6.90;99.90;;;;;;5033011;28;20033;-40
2023/11/17 07:57:03;;;;;;;10.63;6.47;;;6.90;99.90;;;;;;5034160;28;20521;-38
2023/11/17 07:59:28;;;;;;;15.63;7.43;;;7.00;99.90;;;;;;5034069;28;20044;-39
2023/11/17 08:01:55;;;;;;;13.75;7.22;;;7.00;99.90;;;;;;5033797;28;20367;-39
2023/11/17 08:04:22;;;;;;;25.58;8.43;;;7.10;99.90;;;;;;5032715;28;20482;-42
2023/11/17 08:06:48;;;;;;;16.80;7.45;;;7.10;99.90;;;;;;5033033;28;20386;-39
2023/11/17 08:09:16;;;;;;;13.27;6.78;;;7.20;99.90;;;;;;5033817;28;20025;-42
2023/11/17 08:11:42;;;;;;;14.80;7.20;;;7.30;99.90;;;;;;5033935;28;20104;-40
2023/11/17 08:14:08;;;;;;;17.55;7.70;;;7.30;99.90;;;;;;5053702;28;20036;-42
2023/11/17 08:16:35;;;;;;;16.50;7.38;;;7.40;99.90;;;;;;5037803;28;20018;-39
2023/11/17 08:19:01;;;;;;;18.88;7.55;;;7.40;99.90;;;;;;5033080;28;20022;-39
2023/11/17 08:21:27;;;;;;;17.60;6.78;;;7.40;99.90;;;;;;5033086;28;20432;-40
2023/11/17 08:23:53;;;;;;;13.10;6.55;;;7.50;99.90;;;;;;5013230;28;20504;-41
2023/11/17 08:26:19;;;;;;;15.18;6.60;;;7.50;99.90;;;;;;5013919;28;20034;-41
2023/11/17 08:28:45;;;;;;;13.98;6.20;;;7.50;99.90;;;;;;5033055;28;20426;-41
2023/11/17 08:31:17;;;;;;;14.23;7.40;;;7.60;99.90;;;;;;5031962;28;20524;-39
2023/11/17 08:33:44;;;;;;;17.35;7.07;;;7.60;99.90;;;;;;5033838;28;20367;-40
2023/11/17 08:36:11;;;;;;;23.85;7.13;;;7.60;99.90;;;;;;5032419;28;20400;-40
2023/11/17 08:38:43;;;;;;;18.65;7.80;;;7.60;99.90;;;;;;5036756;28;20544;-39
2023/11/17 08:41:12;;;;;;;18.40;7.72;;;7.70;99.90;;;;;;5030444;28;20608;-40
2023/11/17 08:43:39;;;;;;;16.98;7.10;;;7.70;99.90;;;;;;5033057;28;20037;-40
2023/11/17 08:46:08;;;;;;;19.02;7.50;;;7.70;99.90;;;;;;5032806;28;20025;-41
2023/11/17 08:48:35;;;;;;;17.30;6.82;;;7.80;99.90;;;;;;5018419;28;20029;-41
2023/11/17 08:51:01;;;;;;;14.27;7.50;;;7.90;99.90;;;;;;5032877;28;20033;-40
2023/11/17 08:53:27;;;;;;;22.00;8.35;;;8.00;99.90;;;;;;5033009;28;20385;-42
2023/11/17 08:55:52;;;;;;;19.60;8.13;;;8.00;99.90;;;;;;5032312;28;20030;-41
2023/11/17 08:58:20;;;;;;;17.25;7.07;;;8.10;99.90;;;;;;5033066;28;20033;-39
2023/11/17 09:00:46;;;;;;;18.92;7.45;;;8.20;99.90;;;;;;5032563;28;20029;-41
2023/11/17 09:03:12;;;;;;;17.35;7.68;;;8.40;99.90;;;;;;5032312;28;20116;-41
2023/11/17 09:05:38;;;;;;;21.00;8.77;;;8.50;99.90;;;;;;5035685;28;20105;-40
2023/11/17 09:08:07;;;;;;;17.13;8.00;;;8.60;99.90;;;;;;5032823;28;20079;-40
2023/11/17 09:10:33;;;;;;;15.18;7.10;;;8.60;99.90;;;;;;5031278;28;20080;-39
2023/11/17 09:12:58;;;;;;;21.73;8.90;;;8.60;99.90;;;;;;5032046;28;20036;-39
2023/11/17 09:15:27;;;;;;;18.38;9.55;;;8.70;99.90;;;;;;5031774;28;20401;-40
2023/11/17 09:17:53;;;;;;;16.20;8.30;;;8.70;99.90;;;;;;5032795;28;20505;-39
2023/11/17 09:20:23;;;;;;;17.85;9.32;;;8.70;99.90;;;;;;5031517;28;20033;-39
2023/11/17 09:22:50;;;;;;;19.77;8.93;;;8.80;99.90;;;;;;5032894;28;20498;-40
2023/11/17 09:25:18;;;;;;;19.33;8.63;;;8.90;99.90;;;;;;5042531;28;20022;-40
2023/11/17 09:27:48;;;;;;;19.33;8.13;;;8.90;99.90;;;;;;5032987;28;20504;-39
2023/11/17 09:30:15;;;;;;;21.85;10.23;;;8.90;99.90;;;;;;5032870;28;20021;-41
2023/11/17 09:32:48;;;;;;;17.45;8.43;;;8.90;99.90;;;;;;5032925;28;20033;-41
2023/11/17 09:35:15;;;;;;;21.02;9.43;;;8.90;99.90;;;;;;5034165;28;20160;-41
2023/11/17 09:37:49;;;;;;;17.50;7.30;;;9.00;99.90;;;;;;5045896;28;20032;-41
2023/11/17 09:40:20;;;;;;;16.00;8.00;;;9.00;99.90;;;;;;5035474;28;20033;-43
2023/11/17 09:42:57;;;;;;;20.20;7.95;;;9.00;99.90;;;;;;5037185;28;20513;-40
2023/11/17 09:45:25;;;;;;;13.80;7.22;;;9.00;99.90;;;;;;5036100;28;20077;-40
2023/11/17 09:48:01;;;;;;;23.63;9.75;;;9.00;99.90;;;;;;5036220;28;20049;-42
2023/11/17 09:50:29;;;;;;;14.52;8.13;;;9.10;99.90;;;;;;5035002;28;20037;-42
2023/11/17 09:52:57;;;;;;;17.25;8.07;;;9.10;99.90;;;;;;5034810;28;20103;-41
2023/11/17 09:55:27;;;;;;;17.23;7.35;;;9.10;99.90;;;;;;5036850;28;20025;-39
2023/11/17 09:57:55;;;;;;;14.05;7.72;;;9.10;99.90;;;;;;5035089;28;20060;-41
2023/11/17 10:00:27;;;;;;;19.10;7.10;;;9.20;99.90;;;;;;5035717;28;20501;-40
2023/11/17 10:02:59;;;;;;;12.85;6.28;;;9.20;99.90;;;;;;5034871;28;20056;-43
2023/11/17 10:05:32;;;;;;;13.43;6.93;;;9.20;99.90;;;;;;5034974;28;20029;-42
2023/11/17 10:08:06;;;;;;;15.45;5.63;;;9.30;99.90;;;;;;5032188;28;20021;-41
2023/11/17 10:10:38;;;;;;;10.23;5.68;;;9.30;99.90;;;;;;5036338;28;20096;-43
2023/11/17 10:13:13;;;;;;;12.45;5.65;;;9.40;99.90;;;;;;5035443;28;20433;-41
2023/11/17 10:15:46;;;;;;;12.50;5.43;;;9.40;99.90;;;;;;5036015;28;20509;-42
2023/11/17 10:18:20;;;;;;;9.27;5.20;;;9.50;99.90;;;;;;5035221;28;20477;-42
2023/11/17 10:20:47;;;;;;;12.65;5.05;;;9.50;99.90;;;;;;5034166;28;20477;-39
2023/11/17 10:23:12;;;;;;;12.48;4.88;;;9.60;99.90;;;;;;5035761;28;20035;-40
2023/11/17 10:25:39;;;;;;;9.27;4.75;;;9.70;99.90;;;;;;5034992;28;20437;-43
2023/11/17 10:28:04;;;;;;;11.65;3.75;;;9.70;99.90;;;;;;5034640;28;20592;-40
2023/11/17 10:30:34;;;;;;;7.25;4.53;;;9.70;99.90;;;;;;5035734;28;20021;-44
2023/11/17 10:33:20;;;;;;;9.70;4.40;;;9.70;99.90;;;;;;5035738;28;20493;-39
2023/11/17 10:36:12;;;;;;;12.73;4.70;;;9.70;99.90;;;;;;5035346;28;20486;-42
2023/11/17 10:38:39;;;;;;;9.20;4.38;;;9.80;99.90;;;;;;5033722;28;20540;-39
2023/11/17 10:41:30;;;;;;;8.00;4.00;;;9.90;99.90;;;;;;5035423;28;20040;-39
2023/11/17 10:43:59;;;;;;;9.88;4.30;;;10.00;99.90;;;;;;5034820;28;20044;-41
2023/11/17 10:46:35;;;;;;;6.28;4.05;;;10.00;99.90;;;;;;5032654;28;20033;-41
2023/11/17 10:49:05;;;;;;;6.80;4.10;;;10.00;99.90;;;;;;5034677;28;20493;-40
2023/11/17 10:51:32;;;;;;;9.50;4.03;;;10.00;99.90;;;;;;5034939;28;20026;-40
2023/11/17 10:54:11;;;;;;;6.53;4.18;;;10.00;99.90;;;;;;5035358;28;20029;-44
2023/11/17 10:56:38;;;;;;;8.10;4.95;;;10.20;99.90;;;;;;5034003;28;20029;-43
2023/11/17 10:59:08;;;;;;;12.40;4.78;;;10.20;99.90;;;;;;5035521;28;20479;-48
2023/11/17 11:01:36;;;;;;;8.95;3.97;;;10.30;99.90;;;;;;5035322;28;20504;-40
2023/11/17 11:04:09;;;;;;;11.27;5.15;;;10.40;99.90;;;;;;5035159;28;20416;-40
2023/11/17 11:06:38;;;;;;;8.10;4.50;;;10.50;99.90;;;;;;5014202;28;20479;-40
2023/11/17 11:09:05;;;;;;;8.32;4.57;;;10.60;99.90;;;;;;5033941;28;20033;-42
2023/11/17 11:11:32;;;;;;;9.05;4.82;;;10.70;99.90;;;;;;5034859;28;20025;-43
2023/11/17 11:14:02;;;;;;;14.60;4.80;;;10.70;99.90;;;;;;5033406;28;20036;-40
2023/11/17 11:16:34;;;;;;;9.57;5.20;;;10.80;99.90;;;;;;5034259;28;20385;-41
2023/11/17 11:19:01;;;;;;;9.40;4.50;;;10.80;99.90;;;;;;5034457;28;20037;-40
2023/11/17 11:21:29;;;;;;;10.48;5.15;;;11.00;99.90;;;;;;5034464;28;20078;-41
2023/11/17 11:23:59;;;;;;;11.70;4.82;;;11.10;99.90;;;;;;5034521;28;20470;-42
2023/11/17 11:26:26;;;;;;;12.18;5.50;;;11.10;99.90;;;;;;5034469;28;20475;-39
2023/11/17 11:28:57;;;;;;;12.23;5.13;;;11.20;99.90;;;;;;5034326;28;20033;-39
2023/11/17 11:31:25;;;;;;;12.02;4.70;;;11.20;99.90;;;;;;5034127;28;20073;-41
2023/11/17 11:33:51;;;;;;;9.05;4.25;;;11.30;99.90;;;;;;5034944;28;20029;-43
2023/11/17 11:36:18;;;;;;;9.35;4.10;;;11.30;99.90;;;;;;5034738;28;20497;-45
2023/11/17 11:38:47;;;;;;;5.90;3.08;;;11.40;99.90;;;;;;5034488;28;20113;-40
2023/11/17 11:41:15;;;;;;;7.20;3.90;;;11.40;99.90;;;;;;5034269;28;20052;-47
2023/11/17 11:43:54;;;;;;;8.98;4.30;;;11.50;99.90;;;;;;5034394;28;20038;-44
2023/11/17 11:46:23;;;;;;;11.20;3.58;;;11.40;99.90;;;;;;5034154;28;20500;-41
2023/11/17 11:49:12;;;;;;;9.32;4.05;;;11.50;99.90;;;;;;5033602;28;20030;-39
2023/11/17 11:51:53;;;;;;;18.30;4.72;;;11.50;99.90;;;;;;5033867;28;20033;-43
2023/11/17 11:54:19;;;;;;;4.55;3.17;;;11.30;99.90;;;;;;5034167;28;20026;-40
2023/11/17 11:56:45;;;;;;;11.98;3.55;;;11.20;99.90;;;;;;5033937;28;20048;-49
2023/11/17 11:59:11;;;;;;;6.60;3.97;;;11.20;99.90;;;;;;5033069;28;20029;-38
2023/11/17 12:01:39;;;;;;;7.68;4.15;;;11.20;99.90;;;;;;5034098;28;20045;-39
2023/11/17 12:04:05;;;;;;;;;;;11.30;99.90;;;;;;5034391;28;20032;-39
2023/11/17 12:06:33;;;;;;;11.18;4.63;;;11.40;99.90;;;;;;5034059;28;20324;-39
2023/11/17 12:09:03;;;;;;;10.30;4.13;;;11.50;99.90;;;;;;5033199;28;20493;-39
2023/11/17 12:11:50;;;;;;;7.60;3.45;;;11.70;99.90;;;;;;5032927;28;20104;-38
2023/11/17 12:14:18;;;;;;;9.15;3.60;;;11.80;99.90;;;;;;5033865;28;20037;-42
2023/11/17 12:16:54;;;;;;;7.85;2.80;;;11.80;99.90;;;;;;5033672;28;20039;-40
2023/11/17 12:19:31;;;;;;;4.13;3.10;;;11.60;99.90;;;;;;5033500;28;20401;-40
2023/11/17 12:22:01;;;;;;;9.95;3.33;;;11.60;99.90;;;;;;5033749;28;20083;-44
2023/11/17 12:24:28;;;;;;;7.03;3.15;;;11.70;99.90;;;;;;5034004;28;20446;-42
2023/11/17 12:26:55;;;;;;;9.48;3.85;;;11.90;99.90;;;;;;5033385;28;20104;-39
2023/11/17 12:29:25;;;;;;;2.78;2.08;;;12.10;99.90;;;;;;5033640;28;20030;-43
2023/11/17 12:31:52;;;;;;;4.38;2.60;;;12.10;99.90;;;;;;5031573;28;20025;-41
2023/11/17 12:34:19;;;;;;;5.90;2.80;;;12.10;99.90;;;;;;5032826;28;20021;-38
2023/11/17 12:36:47;;;;;;;8.15;3.00;;;12.20;99.90;;;;;;5032813;28;20494;-40
2023/11/17 12:39:19;;;;;;;3.70;2.53;;;12.10;99.90;;;;;;5031828;28;20037;-40
2023/11/17 12:41:45;;;;;;;6.25;2.33;;;12.00;99.90;;;;;;5031530;28;20099;-46
2023/11/17 12:44:18;;;;;;;3.65;2.80;;;12.00;99.90;;;;;;5033282;28;20030;-41
2023/11/17 12:46:45;;;;;;;5.15;2.70;;;11.90;99.90;;;;;;5032891;28;20137;-40
2023/11/17 12:49:15;;;;;;;6.23;3.17;;;11.90;99.90;;;;;;5033551;28;20060;-38
2023/11/17 12:51:43;;;;;;;8.98;2.88;;;11.80;99.90;;;;;;5033475;28;20478;-43
2023/11/17 12:54:15;;;;;;;4.05;3.15;;;11.80;99.90;;;;;;5032875;28;20111;-40
2023/11/17 12:56:41;;;;;;;7.65;3.72;;;11.80;99.90;;;;;;5033290;28;20025;-39
2023/11/17 12:59:06;;;;;;;5.28;3.15;;;11.80;99.90;;;;;;5033137;28;20033;-40